Pooleville, Oklahoma
Current Conditions -  °F | °C
As of 12:35 PM on Wednesday 26 Nov 2014 (Local Time) from K1F0 Reporting Station
Clear Clear  
Wind Chill: 57°   Ceiling: Unl
Heat Index: 57°   Visibility: 10mi
Dew Point: 32°   Wind: 12mph
Humidity: 38%   Direction: 30°NNE
Pressure: 30.18"   Gusts: NA
Location:  34.2137°N, 97.1822°W
Report Text: K1F0 261835Z AUTO 03010KT 10SM CLR 14/00 A3018 RMK AO2
Loading
Personal Weather Stations






























Interactive Weather Map New forecast layout! Learn more

10-Day Weather Forecast

Advertisements
Track Severe Weather on mobile